• Join FlightAware (Why Join?)
  • Login
  • US Flag 
01:32PM EDT


 

Airport Tracker/Info


-or-


 

Live Flight TrackerFlight Track Log ✈ N488PG ✈ 14-May-2013 ✈ Y73 - KGRB

Flight Track Log - Related Links

Times and Time Zones

All times are in EDT time to prevent confusion due to time zone crossing. See the N488PG flight status page for this flight to view local times or setup timezone preferences in your user account.

Time Position Orientation Groundspeed Altitude Reporting Facility
EDT Latitude Longitude Course Direction KTS MPH feet Rate Location/Type
12:06PM 46.0636 -88.6619 167° South 175 201 4,500  Level Minneapolis Center
12:07PM 46.0133 -88.6450 167° South 180 207 6,200 1,680 Climbing Minneapolis Center
12:08PM 45.9619 -88.6272 166° South 186 214 8,000 1,620 Climbing Minneapolis Center
12:09PM 45.9089 -88.6083 166° South 193 222 9,600 1,500 Climbing Minneapolis Center
12:10PM 45.8539 -88.5894 167° South 199 229 11,200 1,560 Climbing Minneapolis Center
12:11PM 45.7964 -88.5694 166° South 208 239 12,900 1,500 Climbing Minneapolis Center
12:12PM 45.7414 -88.5514 167° South 204 235 14,300 960 Climbing Minneapolis Center
12:13PM 45.6633 -88.5239 166° South 239 275 15,000 300 Climbing Minneapolis Center
12:14PM 45.5908 -88.4997 167° South 264 304 15,000 -120 Level Minneapolis Center
12:15PM 45.4989 -88.4686 167° South 283 326 14,800 -420 Descending Minneapolis Center
12:16PM 45.4156 -88.4400 166° South 303 349 14,200 -420 Descending Minneapolis Center
12:17PM 45.3306 -88.4128 167° South 311 358 14,000 -180 Descending Minneapolis Center
12:18PM 45.2433 -88.3831 167° South 305 351 13,900 -480 Descending Minneapolis Center
12:19PM 45.1594 -88.3536 166° South 309 356 13,000 -960 Descending Minneapolis Center
12:21PM 45.0536 -88.3183 167° South 324 373 11,800 -1,140 Descending Minneapolis Center
12:22PM 44.9542 -88.2842 166° South 322 371 10,700 -1,140 Descending Minneapolis Center
12:23PM 44.8675 -88.2564 167° South 307 353 9,500 -1,320 Descending Minneapolis Center
12:24PM 44.7875 -88.2308 167° South 298 343 8,000 -1,440 Descending Minneapolis Center
12:25PM 44.7144 -88.2025 165° South 288 331 6,600 -1,500 Descending Minneapolis Center
12:26PM 44.6417 -88.1778 166° South 274 315 4,900 -1,680 Descending Minneapolis Center
12:27PM 44.5661 -88.1258 154° Southeast 262 302 3,200 -1,200 Descending Minneapolis Center
12:28PM 44.5150 -88.0847 150° Southeast 250 288 2,500 -720 Descending Minneapolis Center
12:30PM 44.4833 -88.1167 160° South  Level FlightAware Approximate
12:37PM 44.4846 -88.1297 160° South  Level Estimated